Time;durP1;ratioP1;P1;durP2;ratioP2;P2;SDS_P1;SDS_P2;PMS_P1;PMS_P2;Temp;Humidity;BMP_temperature;BMP_pressure;BME280_temperature;BME280_humidity;BME280_pressure;Samples;Min_cycle;Max_cycle;Signal;HPM_P1;HPM_P2
2022/06/29 00:00:06;;;;;;;11.20;4.00;;;;;;;;;;5079356;28;20505;-82
2022/06/29 00:02:33;;;;;;;11.57;3.83;;;;;;;;;;5092430;28;20052;-82
2022/06/29 00:04:59;;;;;;;7.82;3.80;;;;;;;;;;5085868;28;20051;-82
2022/06/29 00:07:26;;;;;;;5.07;3.17;;;;;;;;;;5089403;28;20070;-82
2022/06/29 00:09:52;;;;;;;7.35;3.20;;;;;;;;;;5074760;28;20048;-83
2022/06/29 00:12:19;;;;;;;7.90;3.33;;;;;;;;;;5073266;28;20080;-82
2022/06/29 00:14:45;;;;;;;8.30;3.50;;;;;;;;;;5082950;28;20040;-81
2022/06/29 00:17:14;;;;;;;5.30;3.60;;;;;;;;;;5075706;28;20475;-81
2022/06/29 00:19:41;;;;;;;4.00;2.95;;;;;;;;;;5081551;28;20072;-81
2022/06/29 00:22:08;;;;;;;4.93;3.40;;;;;;;;;;5078649;28;20028;-82
2022/06/29 00:24:34;;;;;;;4.68;3.38;;;;;;;;;;5090656;28;20397;-82
2022/06/29 00:27:01;;;;;;;4.53;3.40;;;;;;;;;;5090323;28;20667;-82
2022/06/29 00:29:28;;;;;;;5.80;3.30;;;;;;;;;;5080320;28;20147;-82
2022/06/29 00:31:54;;;;;;;6.82;3.67;;;;;;;;;;5075012;28;20529;-82
2022/06/29 00:34:20;;;;;;;6.32;4.05;;;;;;;;;;5081077;28;20033;-82
2022/06/29 00:36:46;;;;;;;5.80;3.22;;;;;;;;;;5085517;28;20028;-81
2022/06/29 00:39:12;;;;;;;9.38;2.92;;;;;;;;;;5082580;28;20041;-82
2022/06/29 00:41:39;;;;;;;7.65;3.38;;;;;;;;;;5089251;28;20108;-83
2022/06/29 00:44:09;;;;;;;18.30;5.82;;;;;;;;;;5073032;28;20048;-82
2022/06/29 00:46:36;;;;;;;9.18;4.32;;;;;;;;;;5087010;28;20037;-82
2022/06/29 00:49:03;;;;;;;6.20;3.38;;;;;;;;;;5086932;28;20032;-82
2022/06/29 00:51:30;;;;;;;3.50;2.80;;;;;;;;;;5088622;28;20063;-82
2022/06/29 00:53:59;;;;;;;8.43;3.90;;;;;;;;;;5081204;28;20071;-82
2022/06/29 00:56:25;;;;;;;6.45;3.30;;;;;;;;;;5087836;28;20097;-82
2022/06/29 00:58:54;;;;;;;5.47;3.53;;;;;;;;;;5090516;28;20063;-82
2022/06/29 01:01:20;;;;;;;7.22;4.05;;;;;;;;;;5088076;28;20033;-82
2022/06/29 01:03:46;;;;;;;7.15;3.38;;;;;;;;;;5083475;28;20059;-83
2022/06/29 01:06:12;;;;;;;6.68;2.58;;;;;;;;;;5071249;28;20079;-82
2022/06/29 01:08:40;;;;;;;5.38;3.22;;;;;;;;;;5092429;28;20035;-83
2022/06/29 01:11:06;;;;;;;6.30;3.55;;;;;;;;;;5087992;28;20036;-82
2022/06/29 01:13:32;;;;;;;8.05;3.20;;;;;;;;;;5093347;28;20054;-83
2022/06/29 01:15:58;;;;;;;7.20;3.40;;;;;;;;;;5090427;28;20028;-82
2022/06/29 01:18:25;;;;;;;8.75;3.72;;;;;;;;;;5085410;28;20051;-82
2022/06/29 01:20:51;;;;;;;5.43;3.47;;;;;;;;;;5081988;28;20051;-82
2022/06/29 01:23:17;;;;;;;14.15;4.22;;;;;;;;;;5092209;28;20032;-82
2022/06/29 01:25:43;;;;;;;4.60;3.13;;;;;;;;;;5069576;28;20486;-82
2022/06/29 01:28:09;;;;;;;6.88;3.50;;;;;;;;;;5073668;28;20038;-82
2022/06/29 01:30:35;;;;;;;6.63;3.70;;;;;;;;;;5093881;28;20075;-82
2022/06/29 01:33:01;;;;;;;7.72;3.38;;;;;;;;;;5088490;28;20102;-82
2022/06/29 01:35:27;;;;;;;4.30;3.83;;;;;;;;;;5063503;28;20036;-83
2022/06/29 01:37:54;;;;;;;7.57;3.75;;;;;;;;;;5065402;28;20063;-82
2022/06/29 01:40:20;;;;;;;4.80;3.35;;;;;;;;;;5089376;28;20043;-82
2022/06/29 01:42:46;;;;;;;5.30;4.07;;;;;;;;;;5088661;28;20127;-82
2022/06/29 01:45:12;;;;;;;7.72;4.28;;;;;;;;;;5088206;28;20166;-82
2022/06/29 01:47:39;;;;;;;5.80;3.60;;;;;;;;;;5074978;28;20406;-81
2022/06/29 01:50:05;;;;;;;4.22;3.25;;;;;;;;;;5086556;28;20039;-82
2022/06/29 01:52:31;;;;;;;6.80;3.95;;;;;;;;;;5086767;28;20542;-82
2022/06/29 01:54:57;;;;;;;4.38;3.30;;;;;;;;;;5083388;28;20043;-82
2022/06/29 01:57:23;;;;;;;9.35;3.70;;;;;;;;;;5085387;28;20425;-82
2022/06/29 01:59:50;;;;;;;6.35;3.45;;;;;;;;;;5071812;28;20046;-82
2022/06/29 02:02:16;;;;;;;8.70;4.20;;;;;;;;;;5092736;28;20082;-82
2022/06/29 02:04:42;;;;;;;4.72;3.95;;;;;;;;;;5093521;28;20036;-83
2022/06/29 02:07:08;;;;;;;6.32;3.80;;;;;;;;;;5085973;28;20439;-82
2022/06/29 02:09:34;;;;;;;6.70;4.68;;;;;;;;;;5091224;28;20036;-82
2022/06/29 02:12:00;;;;;;;8.57;4.72;;;;;;;;;;5090968;28;20048;-82
2022/06/29 02:14:26;;;;;;;5.07;3.70;;;;;;;;;;5080338;28;20048;-82
2022/06/29 02:16:52;;;;;;;4.70;3.55;;;;;;;;;;5082468;28;20043;-82
2022/06/29 02:19:19;;;;;;;8.57;4.55;;;;;;;;;;5079217;28;20406;-82
2022/06/29 02:21:45;;;;;;;6.50;3.92;;;;;;;;;;5084168;28;20040;-82
2022/06/29 02:24:11;;;;;;;8.85;4.22;;;;;;;;;;5099975;28;20389;-82
2022/06/29 02:26:37;;;;;;;6.20;4.13;;;;;;;;;;5086438;28;20047;-82
2022/06/29 02:29:03;;;;;;;7.35;4.32;;;;;;;;;;5065245;28;20068;-81
2022/06/29 02:36:59;;;;;;;7.32;3.92;;;;;;;;;;5085445;28;20051;-82
2022/06/29 02:39:25;;;;;;;6.43;4.13;;;;;;;;;;5089702;28;20481;-80
2022/06/29 02:41:51;;;;;;;5.90;4.50;;;;;;;;;;5081924;28;20505;-82
2022/06/29 02:44:17;;;;;;;3.97;3.47;;;;;;;;;;5094163;28;20040;-82
2022/06/29 02:46:44;;;;;;;5.90;4.75;;;;;;;;;;5087510;28;20063;-82
2022/06/29 02:49:10;;;;;;;7.45;4.40;;;;;;;;;;5092034;28;20043;-83
2022/06/29 02:51:36;;;;;;;6.07;4.45;;;;;;;;;;5093427;28;20485;-82
2022/06/29 02:54:02;;;;;;;6.13;4.20;;;;;;;;;;5083268;28;20122;-82
2022/06/29 02:56:29;;;;;;;9.07;3.85;;;;;;;;;;5086843;28;20449;-81
2022/06/29 02:58:55;;;;;;;9.05;4.28;;;;;;;;;;5087192;28;20032;-82
2022/06/29 03:01:21;;;;;;;7.35;4.93;;;;;;;;;;5090983;28;20055;-82
2022/06/29 03:03:47;;;;;;;7.18;5.53;;;;;;;;;;5091293;28;20076;-83
2022/06/29 03:06:14;;;;;;;6.45;4.18;;;;;;;;;;5083524;28;20049;-82
2022/06/29 03:08:40;;;;;;;7.57;4.70;;;;;;;;;;5056131;28;20047;-82
2022/06/29 03:11:06;;;;;;;6.80;4.38;;;;;;;;;;5056712;28;20055;-82
2022/06/29 03:13:32;;;;;;;6.22;4.20;;;;;;;;;;5084725;28;20048;-82
2022/06/29 03:15:58;;;;;;;7.72;5.05;;;;;;;;;;5090663;28;20043;-82
2022/06/29 03:18:24;;;;;;;6.35;5.22;;;;;;;;;;5091907;28;20409;-83
2022/06/29 03:20:51;;;;;;;7.40;4.63;;;;;;;;;;5075361;28;20051;-82
2022/06/29 03:23:17;;;;;;;4.72;4.07;;;;;;;;;;5092580;28;20050;-82
2022/06/29 03:25:43;;;;;;;7.32;4.53;;;;;;;;;;5090608;28;20043;-82
2022/06/29 03:28:09;;;;;;;7.15;5.13;;;;;;;;;;5081367;28;20035;-82
2022/06/29 03:30:35;;;;;;;5.38;4.57;;;;;;;;;;5089955;28;20042;-82
2022/06/29 03:33:01;;;;;;;5.05;4.32;;;;;;;;;;5084711;28;20047;-82
2022/06/29 03:35:27;;;;;;;10.15;4.65;;;;;;;;;;5083712;28;20048;-82
2022/06/29 03:37:54;;;;;;;8.68;4.65;;;;;;;;;;5078047;28;20131;-82
2022/06/29 03:40:21;;;;;;;5.55;4.30;;;;;;;;;;5066296;28;20557;-82
2022/06/29 03:42:47;;;;;;;6.45;3.78;;;;;;;;;;5071165;28;20409;-82
2022/06/29 03:45:13;;;;;;;6.90;4.35;;;;;;;;;;5082542;28;20024;-82
2022/06/29 03:47:40;;;;;;;6.72;4.05;;;;;;;;;;5083544;28;20501;-82
2022/06/29 03:50:09;;;;;;;8.27;4.97;;;;;;;;;;5086869;28;20397;-82
2022/06/29 03:52:35;;;;;;;7.90;5.20;;;;;;;;;;5091812;28;20047;-82
2022/06/29 03:55:02;;;;;;;7.45;4.28;;;;;;;;;;5083393;28;20407;-82
2022/06/29 03:57:28;;;;;;;6.28;4.75;;;;;;;;;;5089231;28;20481;-82
2022/06/29 03:59:54;;;;;;;7.97;4.97;;;;;;;;;;5085603;28;20109;-82
2022/06/29 04:02:21;;;;;;;8.40;4.97;;;;;;;;;;5090088;28;20044;-81
2022/06/29 04:04:47;;;;;;;7.18;4.38;;;;;;;;;;5087749;28;20458;-82
2022/06/29 04:07:13;;;;;;;7.13;4.63;;;;;;;;;;5087270;28;20040;-82
2022/06/29 04:09:39;;;;;;;6.50;4.80;;;;;;;;;;5083766;28;20036;-81
2022/06/29 04:12:05;;;;;;;7.35;5.75;;;;;;;;;;5093265;28;20521;-81
2022/06/29 04:14:33;;;;;;;9.48;4.63;;;;;;;;;;5085322;28;20047;-82
2022/06/29 04:17:00;;;;;;;5.60;4.45;;;;;;;;;;5084262;28;20124;-81
2022/06/29 04:19:27;;;;;;;7.50;4.82;;;;;;;;;;5067100;28;20043;-81
2022/06/29 04:21:54;;;;;;;5.85;4.85;;;;;;;;;;5086272;28;20036;-83
2022/06/29 04:24:21;;;;;;;5.30;4.50;;;;;;;;;;5082344;28;20433;-82
2022/06/29 04:26:47;;;;;;;8.95;4.82;;;;;;;;;;5083265;28;20096;-82
2022/06/29 04:29:14;;;;;;;6.78;5.10;;;;;;;;;;5067701;28;20480;-81
2022/06/29 04:31:40;;;;;;;9.40;5.70;;;;;;;;;;5067558;28;20526;-82
2022/06/29 04:34:07;;;;;;;5.03;4.50;;;;;;;;;;5086149;28;20036;-82
2022/06/29 04:36:33;;;;;;;7.80;4.38;;;;;;;;;;5090699;28;20050;-81
2022/06/29 04:39:00;;;;;;;8.65;4.88;;;;;;;;;;5089787;28;20070;-82
2022/06/29 04:41:26;;;;;;;10.00;6.13;;;;;;;;;;5076157;28;20067;-82
2022/06/29 04:43:52;;;;;;;5.90;4.03;;;;;;;;;;5091934;28;20600;-82
2022/06/29 04:46:22;;;;;;;4.68;3.92;;;;;;;;;;5072553;28;20389;-82
2022/06/29 04:48:50;;;;;;;7.28;4.70;;;;;;;;;;5089082;28;20071;-82
2022/06/29 04:51:16;;;;;;;5.60;4.47;;;;;;;;;;5090651;28;20051;-82
2022/06/29 04:53:44;;;;;;;7.93;4.70;;;;;;;;;;5080900;28;20036;-82
2022/06/29 04:56:10;;;;;;;8.15;4.72;;;;;;;;;;5093326;28;20048;-82
2022/06/29 04:58:36;;;;;;;6.97;4.75;;;;;;;;;;5072120;28;20045;-82
2022/06/29 05:01:03;;;;;;;6.75;4.18;;;;;;;;;;5091211;28;20071;-82
2022/06/29 05:03:29;;;;;;;6.20;4.65;;;;;;;;;;5085234;28;20048;-82
2022/06/29 05:05:55;;;;;;;8.93;4.63;;;;;;;;;;5089572;28;20143;-82
2022/06/29 05:08:21;;;;;;;4.72;3.92;;;;;;;;;;5086908;28;20035;-81
2022/06/29 05:10:47;;;;;;;5.53;4.57;;;;;;;;;;5068854;28;20105;-82
2022/06/29 05:13:14;;;;;;;4.72;3.88;;;;;;;;;;5089038;28;20047;-82
2022/06/29 05:15:40;;;;;;;6.10;4.05;;;;;;;;;;5089966;28;20101;-82
2022/06/29 05:18:06;;;;;;;5.45;3.55;;;;;;;;;;5092130;28;20101;-82
2022/06/29 05:20:32;;;;;;;8.23;4.28;;;;;;;;;;5087160;28;20547;-82
2022/06/29 05:22:59;;;;;;;8.43;4.40;;;;;;;;;;5094651;28;20033;-82
2022/06/29 05:25:25;;;;;;;6.18;4.68;;;;;;;;;;5087703;28;20123;-82
2022/06/29 05:27:51;;;;;;;6.32;4.22;;;;;;;;;;5100003;28;20082;-82
2022/06/29 05:30:17;;;;;;;5.00;3.40;;;;;;;;;;5089726;28;20508;-82
2022/06/29 05:32:44;;;;;;;6.38;3.75;;;;;;;;;;5094882;28;20136;-82
2022/06/29 05:35:10;;;;;;;8.02;3.75;;;;;;;;;;5083308;28;20044;-81
2022/06/29 05:37:37;;;;;;;5.35;3.83;;;;;;;;;;5085001;28;20047;-81
2022/06/29 05:40:03;;;;;;;6.07;4.07;;;;;;;;;;5085990;28;20044;-82
2022/06/29 05:42:29;;;;;;;5.13;4.25;;;;;;;;;;5088824;28;20505;-81
2022/06/29 05:44:56;;;;;;;6.10;4.43;;;;;;;;;;5086821;28;20036;-82
2022/06/29 05:47:22;;;;;;;5.28;4.43;;;;;;;;;;5081973;28;20033;-82
2022/06/29 05:49:48;;;;;;;5.03;4.13;;;;;;;;;;5057675;28;20607;-82
2022/06/29 05:52:14;;;;;;;5.18;4.18;;;;;;;;;;5093730;28;20289;-81
2022/06/29 05:54:40;;;;;;;6.88;4.68;;;;;;;;;;5094210;28;20329;-82
2022/06/29 05:57:06;;;;;;;5.20;4.00;;;;;;;;;;5091478;28;20036;-81
2022/06/29 05:59:33;;;;;;;4.85;4.22;;;;;;;;;;5083428;28;20069;-82
2022/06/29 06:01:59;;;;;;;5.32;4.25;;;;;;;;;;5076574;28;20103;-81
2022/06/29 06:04:25;;;;;;;5.60;4.30;;;;;;;;;;5076376;28;20451;-81
2022/06/29 06:06:52;;;;;;;5.57;3.83;;;;;;;;;;5093750;28;20422;-81
2022/06/29 06:09:25;;;;;;;6.43;3.95;;;;;;;;;;5062012;28;20497;-81
2022/06/29 06:11:53;;;;;;;5.82;3.92;;;;;;;;;;5089227;28;20055;-82
2022/06/29 06:14:19;;;;;;;7.78;4.25;;;;;;;;;;5090076;28;20123;-81
2022/06/29 06:16:45;;;;;;;8.73;4.72;;;;;;;;;;5065455;28;20147;-81
2022/06/29 06:19:11;;;;;;;7.70;4.03;;;;;;;;;;5092253;28;20064;-82
2022/06/29 06:21:37;;;;;;;6.78;4.43;;;;;;;;;;5089503;28;20592;-81
2022/06/29 06:24:04;;;;;;;6.38;4.10;;;;;;;;;;5062496;28;20052;-81
2022/06/29 06:26:31;;;;;;;6.90;3.60;;;;;;;;;;5072360;28;20071;-81
2022/06/29 06:28:58;;;;;;;5.13;3.70;;;;;;;;;;5083259;28;20533;-81
2022/06/29 06:31:27;;;;;;;7.38;4.28;;;;;;;;;;5084564;28;20041;-81
2022/06/29 06:33:53;;;;;;;5.68;3.50;;;;;;;;;;5072261;28;20677;-81
2022/06/29 06:36:19;;;;;;;6.03;3.42;;;;;;;;;;5080835;28;20036;-82
2022/06/29 06:38:45;;;;;;;8.48;4.43;;;;;;;;;;5085839;28;20071;-81
2022/06/29 06:41:25;;;;;;;5.20;3.35;;;;;;;;;;5082027;28;20058;-81
2022/06/29 06:43:53;;;;;;;5.10;3.28;;;;;;;;;;5090438;28;20040;-81
2022/06/29 06:46:19;;;;;;;4.00;3.17;;;;;;;;;;5080004;28;20397;-81
2022/06/29 06:48:45;;;;;;;4.32;3.47;;;;;;;;;;5091989;28;20115;-81
2022/06/29 06:51:14;;;;;;;5.80;3.13;;;;;;;;;;5086038;28;20048;-81
2022/06/29 06:53:41;;;;;;;6.45;3.95;;;;;;;;;;5082052;28;20047;-82
2022/06/29 06:56:07;;;;;;;4.32;3.35;;;;;;;;;;5087858;28;20461;-81
2022/06/29 06:58:35;;;;;;;5.63;3.50;;;;;;;;;;5090409;28;20081;-81
2022/06/29 07:01:06;;;;;;;5.40;3.40;;;;;;;;;;5065324;28;20048;-81
2022/06/29 07:03:32;;;;;;;5.10;3.30;;;;;;;;;;5068310;28;20051;-81
2022/06/29 07:06:04;;;;;;;4.70;3.08;;;;;;;;;;5089184;28;20040;-81
2022/06/29 07:08:31;;;;;;;6.33;3.47;;;;;;;;;;5085122;28;20028;-81
2022/06/29 07:10:58;;;;;;;6.18;3.75;;;;;;;;;;5086341;28;20039;-81
2022/06/29 07:13:24;;;;;;;6.03;3.75;;;;;;;;;;5085824;28;20595;-79
2022/06/29 07:15:50;;;;;;;7.40;3.38;;;;;;;;;;5088826;28;20036;-80
2022/06/29 07:18:16;;;;;;;6.30;3.80;;;;;;;;;;5088003;28;20032;-81
2022/06/29 07:20:42;;;;;;;5.85;3.83;;;;;;;;;;5086196;28;20036;-80
2022/06/29 07:23:08;;;;;;;4.55;2.83;;;;;;;;;;5087732;28;20108;-80
2022/06/29 07:25:35;;;;;;;4.82;2.70;;;;;;;;;;5087646;28;20043;-81
2022/06/29 07:28:01;;;;;;;4.75;2.70;;;;;;;;;;5085044;28;20052;-81
2022/06/29 07:30:27;;;;;;;7.07;3.03;;;;;;;;;;5087686;28;20262;-81
2022/06/29 07:32:53;;;;;;;4.13;2.97;;;;;;;;;;5089727;28;20382;-81
2022/06/29 07:35:19;;;;;;;5.63;2.88;;;;;;;;;;5089210;28;20386;-80
2022/06/29 07:37:45;;;;;;;5.78;2.65;;;;;;;;;;5084874;28;20401;-80
2022/06/29 07:40:12;;;;;;;5.30;2.72;;;;;;;;;;5087448;28;20040;-80
2022/06/29 07:42:38;;;;;;;4.70;2.83;;;;;;;;;;5081015;28;20036;-80
2022/06/29 07:45:05;;;;;;;11.45;2.65;;;;;;;;;;5085745;28;20044;-81
2022/06/29 07:47:32;;;;;;;5.38;2.33;;;;;;;;;;5080520;28;20039;-81
2022/06/29 07:49:58;;;;;;;4.57;2.53;;;;;;;;;;5064778;28;20037;-81
2022/06/29 07:52:24;;;;;;;8.07;2.50;;;;;;;;;;5072545;28;20032;-81
2022/06/29 07:54:51;;;;;;;8.10;2.47;;;;;;;;;;5081223;28;20036;-81
2022/06/29 07:57:17;;;;;;;4.28;2.38;;;;;;;;;;5084465;28;20051;-80
2022/06/29 07:59:46;;;;;;;2.78;2.10;;;;;;;;;;5081131;28;20054;-81
2022/06/29 08:02:12;;;;;;;3.00;2.00;;;;;;;;;;5090386;28;20048;-81
2022/06/29 08:04:38;;;;;;;4.82;2.47;;;;;;;;;;5088222;28;20470;-81
2022/06/29 08:07:04;;;;;;;4.50;2.00;;;;;;;;;;5084367;28;20048;-82
2022/06/29 08:09:31;;;;;;;2.53;1.70;;;;;;;;;;5086937;28;20090;-81
2022/06/29 08:11:57;;;;;;;2.85;2.05;;;;;;;;;;5082242;28;20116;-81
2022/06/29 08:14:23;;;;;;;4.68;2.67;;;;;;;;;;5087203;28;20130;-80
2022/06/29 08:16:49;;;;;;;4.40;2.25;;;;;;;;;;5078523;28;20043;-80
2022/06/29 08:19:15;;;;;;;5.43;1.70;;;;;;;;;;5080263;28;20190;-80
2022/06/29 08:21:41;;;;;;;3.33;1.60;;;;;;;;;;5091795;28;20066;-81
2022/06/29 08:24:07;;;;;;;5.22;2.20;;;;;;;;;;5084796;28;20457;-81
2022/06/29 08:26:34;;;;;;;2.75;1.92;;;;;;;;;;5082947;28;20031;-80
2022/06/29 08:29:00;;;;;;;4.50;1.83;;;;;;;;;;5078548;28;20087;-80
2022/06/29 08:31:26;;;;;;;5.90;1.95;;;;;;;;;;5089164;28;20043;-80
2022/06/29 08:33:52;;;;;;;3.33;1.80;;;;;;;;;;5076780;28;20488;-80
2022/06/29 08:36:18;;;;;;;4.10;1.58;;;;;;;;;;5082235;28;20051;-80
2022/06/29 08:38:44;;;;;;;5.10;1.77;;;;;;;;;;5084074;28;20040;-80
2022/06/29 08:41:11;;;;;;;4.22;2.75;;;;;;;;;;5085222;28;20032;-79
2022/06/29 08:43:37;;;;;;;3.85;2.65;;;;;;;;;;5073679;28;20050;-79
2022/06/29 08:46:04;;;;;;;2.58;1.70;;;;;;;;;;5074495;28;20511;-80
2022/06/29 08:48:32;;;;;;;5.18;2.13;;;;;;;;;;5084014;28;20032;-79
2022/06/29 08:50:59;;;;;;;5.05;2.22;;;;;;;;;;5089602;28;20097;-78
2022/06/29 08:53:25;;;;;;;4.22;1.83;;;;;;;;;;5084769;28;20043;-79
2022/06/29 08:55:55;;;;;;;4.15;1.70;;;;;;;;;;5080453;28;20044;-78
2022/06/29 08:58:26;;;;;;;2.63;1.70;;;;;;;;;;5077982;28;20375;-80
2022/06/29 09:00:52;;;;;;;3.63;2.00;;;;;;;;;;5089568;28;20044;-79
2022/06/29 09:03:19;;;;;;;4.45;1.73;;;;;;;;;;5087166;28;20052;-78
2022/06/29 09:05:49;;;;;;;4.53;1.90;;;;;;;;;;5075304;28;20056;-77
2022/06/29 09:08:16;;;;;;;3.72;1.85;;;;;;;;;;5072387;28;20092;-80
2022/06/29 09:10:43;;;;;;;2.85;1.90;;;;;;;;;;5073404;28;20033;-78
2022/06/29 09:13:09;;;;;;;2.88;1.73;;;;;;;;;;5089128;28;20289;-78
2022/06/29 09:15:39;;;;;;;3.50;1.60;;;;;;;;;;5086754;28;20494;-78
2022/06/29 09:18:22;;;;;;;3.35;1.70;;;;;;;;;;5073121;28;20036;-79
2022/06/29 09:20:53;;;;;;;3.75;1.60;;;;;;;;;;5084146;28;20052;-78
2022/06/29 09:23:19;;;;;;;2.80;1.75;;;;;;;;;;5089395;28;20049;-78
2022/06/29 09:25:45;;;;;;;2.47;1.88;;;;;;;;;;5086512;28;20067;-78
2022/06/29 09:28:29;;;;;;;3.20;2.00;;;;;;;;;;5088638;28;20508;-78
2022/06/29 09:30:56;;;;;;;3.05;2.00;;;;;;;;;;5083436;28;20032;-79
2022/06/29 09:33:23;;;;;;;3.03;1.80;;;;;;;;;;5080027;28;20040;-78
2022/06/29 09:36:17;;;;;;;5.50;1.85;;;;;;;;;;5073203;28;20526;-79
2022/06/29 09:38:44;;;;;;;3.92;2.20;;;;;;;;;;5095238;27;20124;-78
2022/06/29 09:41:11;;;;;;;4.43;2.05;;;;;;;;;;5088271;28;20048;-76
2022/06/29 09:43:39;;;;;;;3.50;1.85;;;;;;;;;;5086258;28;20043;-78
2022/06/29 09:46:06;;;;;;;6.63;1.75;;;;;;;;;;5084335;28;20036;-77
2022/06/29 09:48:34;;;;;;;4.35;1.77;;;;;;;;;;5081442;28;20027;-77
2022/06/29 09:51:01;;;;;;;5.43;2.10;;;;;;;;;;5080462;28;20051;-78
2022/06/29 09:53:40;;;;;;;3.85;1.80;;;;;;;;;;5082736;28;20490;-79
2022/06/29 09:56:07;;;;;;;9.13;2.72;;;;;;;;;;5090472;28;20051;-78
2022/06/29 09:58:41;;;;;;;3.00;1.95;;;;;;;;;;5093119;28;20036;-79
2022/06/29 10:03:55;;;;;;;4.13;1.90;;;;;;;;;;5090880;28;20513;-80
2022/06/29 10:06:21;;;;;;;5.65;1.85;;;;;;;;;;5089407;28;20075;-78
2022/06/29 10:08:48;;;;;;;5.03;2.00;;;;;;;;;;5092766;28;20390;-78
2022/06/29 10:14:38;;;;;;;5.10;1.83;;;;;;;;;;5085887;28;20194;-78
2022/06/29 10:17:25;;;;;;;3.10;1.75;;;;;;;;;;5075478;28;20059;-79
2022/06/29 10:20:09;;;;;;;3.00;2.10;;;;;;;;;;5049955;28;20135;-77
2022/06/29 10:22:35;;;;;;;4.82;1.73;;;;;;;;;;5081750;28;20047;-79
2022/06/29 10:25:03;;;;;;;4.35;2.35;;;;;;;;;;5085444;28;20036;-78
2022/06/29 10:27:29;;;;;;;7.75;2.20;;;;;;;;;;5085671;28;20032;-78
2022/06/29 10:30:18;;;;;;;3.60;1.73;;;;;;;;;;5082534;28;20040;-78
2022/06/29 10:32:45;;;;;;;2.67;1.60;;;;;;;;;;5080267;28;20052;-78
2022/06/29 10:35:11;;;;;;;4.00;1.63;;;;;;;;;;5090670;28;20032;-78
2022/06/29 10:37:47;;;;;;;2.85;1.80;;;;;;;;;;5091834;28;20036;-77
2022/06/29 10:40:17;;;;;;;3.92;1.80;;;;;;;;;;5087428;28;20093;-77
2022/06/29 10:45:34;;;;;;;3.28;1.60;;;;;;;;;;5087198;28;20477;-77
2022/06/29 10:48:05;;;;;;;3.55;1.77;;;;;;;;;;5082885;28;20043;-78
2022/06/29 10:50:32;;;;;;;3.65;1.60;;;;;;;;;;5089022;28;20363;-77
2022/06/29 10:52:59;;;;;;;1.70;1.58;;;;;;;;;;5085121;28;20036;-77
2022/06/29 10:55:28;;;;;;;4.20;1.90;;;;;;;;;;5091415;28;20496;-77
2022/06/29 10:57:55;;;;;;;5.97;2.20;;;;;;;;;;5091106;28;20100;-76
2022/06/29 11:00:25;;;;;;;3.63;1.95;;;;;;;;;;5088881;28;20043;-76
2022/06/29 11:02:52;;;;;;;2.47;1.60;;;;;;;;;;5085356;28;20423;-76
2022/06/29 11:05:18;;;;;;;11.18;2.20;;;;;;;;;;5086072;28;20169;-77
2022/06/29 11:13:25;;;;;;;11.10;2.10;;;;;;;;;;5086945;28;20046;-77
2022/06/29 11:15:53;;;;;;;3.22;1.65;;;;;;;;;;5082674;28;20073;-77
2022/06/29 11:18:21;;;;;;;2.30;1.63;;;;;;;;;;5087487;28;20044;-77
2022/06/29 11:20:51;;;;;;;2.55;1.65;;;;;;;;;;5078748;28;20042;-77
2022/06/29 11:23:18;;;;;;;4.55;2.33;;;;;;;;;;5080847;28;20096;-77
2022/06/29 11:25:47;;;;;;;4.43;1.70;;;;;;;;;;5092173;28;20524;-77
2022/06/29 11:28:20;;;;;;;2.65;1.67;;;;;;;;;;5082025;28;20462;-77
2022/06/29 11:31:05;;;;;;;4.15;2.10;;;;;;;;;;5072379;28;20043;-77
2022/06/29 11:33:34;;;;;;;2.83;1.83;;;;;;;;;;5083686;28;20449;-77
2022/06/29 11:36:08;;;;;;;3.63;1.63;;;;;;;;;;5076046;28;20542;-76
2022/06/29 11:38:44;;;;;;;3.25;1.80;;;;;;;;;;5084944;28;20040;-76
2022/06/29 11:43:03;;;;;;;7.28;1.77;;;;;;;;;;5081808;28;20040;-76
2022/06/29 11:44:28;;;;;;;3.28;1.92;;;;;;;;;;5084826;28;20067;-79
2022/06/29 11:46:55;;;;;;;6.75;2.17;;;;;;;;;;5086431;28;20119;-78
2022/06/29 11:49:33;;;;;;;3.53;1.50;;;;;;;;;;5087887;28;20032;-77
2022/06/29 11:52:02;;;;;;;3.10;1.60;;;;;;;;;;5082712;28;20039;-76
2022/06/29 11:54:47;;;;;;;4.50;1.55;;;;;;;;;;5084571;28;20050;-77
2022/06/29 11:57:15;;;;;;;2.92;1.60;;;;;;;;;;5081136;28;20043;-76
2022/06/29 11:59:44;;;;;;;4.03;1.90;;;;;;;;;;5076144;28;20048;-75
2022/06/29 12:02:10;;;;;;;2.60;1.80;;;;;;;;;;5087441;28;20622;-77
2022/06/29 12:04:39;;;;;;;2.78;1.65;;;;;;;;;;5084304;28;20056;-77
2022/06/29 12:07:10;;;;;;;3.30;1.60;;;;;;;;;;5073895;28;20059;-77
2022/06/29 12:09:37;;;;;;;3.40;1.63;;;;;;;;;;5090620;28;20043;-76
2022/06/29 12:12:05;;;;;;;3.13;1.80;;;;;;;;;;5090508;28;20130;-77
2022/06/29 12:14:31;;;;;;;3.83;2.10;;;;;;;;;;5082243;28;20040;-76
2022/06/29 12:16:57;;;;;;;3.20;1.60;;;;;;;;;;5083935;28;20139;-77
2022/06/29 12:19:23;;;;;;;3.38;1.55;;;;;;;;;;5087514;28;20039;-77
2022/06/29 12:21:50;;;;;;;2.13;1.48;;;;;;;;;;5091035;28;20051;-77
2022/06/29 12:24:17;;;;;;;5.13;1.80;;;;;;;;;;5085330;28;20046;-78
2022/06/29 12:26:44;;;;;;;4.28;1.40;;;;;;;;;;5066889;28;20044;-78
2022/06/29 12:29:13;;;;;;;4.07;1.88;;;;;;;;;;5077144;28;20486;-78
2022/06/29 12:31:40;;;;;;;2.88;1.52;;;;;;;;;;5080084;28;20204;-77
2022/06/29 12:34:07;;;;;;;3.13;1.75;;;;;;;;;;5085374;28;20315;-77
2022/06/29 12:36:34;;;;;;;2.25;1.60;;;;;;;;;;5083687;28;20153;-77
2022/06/29 12:39:00;;;;;;;2.80;1.83;;;;;;;;;;5084686;28;20047;-78
2022/06/29 12:41:26;;;;;;;2.28;1.58;;;;;;;;;;5087949;28;20032;-78
2022/06/29 12:43:53;;;;;;;3.88;1.70;;;;;;;;;;5079999;28;20127;-78
2022/06/29 12:46:18;;;;;;;2.08;1.45;;;26.80;73.20;;;;;;5086479;28;20042;-79
2022/06/29 12:48:44;;;;;;;2.10;1.65;;;26.60;65.70;;;;;;5081569;28;20124;-78
2022/06/29 12:51:10;;;;;;;3.38;2.30;;;26.40;64.30;;;;;;5071083;28;20039;-79
2022/06/29 12:53:37;;;;;;;4.55;1.50;;;;;;;;;;5083213;28;20462;-78
2022/06/29 12:56:06;;;;;;;2.78;1.42;;;;;;;;;;5086233;28;20036;-77
2022/06/29 12:58:33;;;;;;;3.03;1.67;;;;;;;;;;5087507;28;20072;-77
2022/06/29 13:00:59;;;;;;;3.00;1.42;;;;;;;;;;5082345;28;20502;-79
2022/06/29 13:03:25;;;;;;;2.80;1.60;;;;;;;;;;5079443;28;20075;-79
2022/06/29 13:05:52;;;;;;;2.83;1.60;;;;;;;;;;5086720;28;20041;-79
2022/06/29 13:08:18;;;;;;;3.08;2.17;;;;;;;;;;5088063;28;20375;-78
2022/06/29 13:10:46;;;;;;;4.28;1.70;;;;;;;;;;5086744;28;20040;-77
2022/06/29 13:13:13;;;;;;;6.47;1.90;;;;;;;;;;5083697;28;20119;-78
2022/06/29 13:15:39;;;;;;;2.95;1.45;;;;;;;;;;5088290;28;20036;-78
2022/06/29 13:18:05;;;;;;;2.58;1.80;;;;;;;;;;5083414;28;20028;-77
2022/06/29 13:20:31;;;;;;;3.20;1.73;;;;;;;;;;5082236;28;20114;-78
2022/06/29 13:22:57;;;;;;;2.75;1.88;;;;;;;;;;5070247;28;20234;-79
2022/06/29 13:25:24;;;;;;;3.22;1.92;;;;;;;;;;5082806;28;20167;-78
2022/06/29 13:27:50;;;;;;;3.33;1.67;;;;;;;;;;5081872;28;20124;-79
2022/06/29 13:30:16;;;;;;;3.50;1.65;;;;;;;;;;5092229;28;20039;-78
2022/06/29 13:32:42;;;;;;;3.33;1.60;;;;;;;;;;5086466;28;20177;-78
2022/06/29 13:35:09;;;;;;;5.03;1.98;;;;;;;;;;5085915;28;20402;-77
2022/06/29 13:37:35;;;;;;;3.63;1.67;;;;;;;;;;5086203;28;20051;-78
2022/06/29 13:40:02;;;;;;;4.20;2.17;;;;;;;;;;5095405;28;20032;-79
2022/06/29 13:42:28;;;;;;;4.13;2.05;;;;;;;;;;5093719;28;20040;-78
2022/06/29 13:44:54;;;;;;;3.65;1.92;;;;;;;;;;5092877;28;20039;-78
2022/06/29 13:47:20;;;;;;;2.58;1.90;;;;;;;;;;5086935;28;20067;-79
2022/06/29 13:49:46;;;;;;;2.58;1.70;;;;;;;;;;5082153;28;20544;-79
2022/06/29 13:52:13;;;;;;;4.28;2.60;;;;;;;;;;5084908;28;20107;-79
2022/06/29 13:54:40;;;;;;;3.80;2.10;;;;;;;;;;5078163;28;20450;-80
2022/06/29 13:57:06;;;;;;;5.80;2.40;;;;;;;;;;5083472;28;20040;-79
2022/06/29 13:59:32;;;;;;;4.97;2.85;;;;;;;;;;5066649;28;20428;-80
2022/06/29 14:02:02;;;;;;;2.85;2.38;;;;;;;;;;5087130;28;20056;-79
2022/06/29 14:04:28;;;;;;;4.28;2.83;;;;;;;;;;5095703;28;20562;-79
2022/06/29 14:06:54;;;;;;;5.75;3.08;;;;;;;;;;5084290;28;20041;-79
2022/06/29 14:09:21;;;;;;;2.60;2.00;;;;;;;;;;5084386;28;20425;-79
2022/06/29 14:11:47;;;;;;;2.95;2.20;;;;;;;;;;5085723;28;20068;-79
2022/06/29 14:14:14;;;;;;;3.88;2.50;;;;;;;;;;5085534;28;20119;-79
2022/06/29 14:16:40;;;;;;;4.93;2.67;;;;;;;;;;5072077;28;20040;-78
2022/06/29 14:19:07;;;;;;;5.45;2.42;;;;;;;;;;5089771;28;20048;-79
2022/06/29 14:21:34;;;;;;;3.33;2.38;;;;;;;;;;5088321;28;20089;-78
2022/06/29 14:24:01;;;;;;;4.45;2.78;;;;;;;;;;5090772;28;20413;-78
2022/06/29 14:26:27;;;;;;;4.85;3.55;;;;;;;;;;5085463;28;20259;-77
2022/06/29 14:28:53;;;;;;;5.43;2.90;;;;;;;;;;5086047;28;20040;-78
2022/06/29 14:31:19;;;;;;;5.18;3.10;;;;;;;;;;5085036;28;20036;-77
2022/06/29 14:33:46;;;;;;;5.78;2.85;;;;;;;;;;5081596;28;20048;-78
2022/06/29 14:36:12;;;;;;;5.13;2.60;;;;;;;;;;5092537;28;20047;-77
2022/06/29 14:38:38;;;;;;;4.10;2.55;;;;;;;;;;5085695;28;20117;-79
2022/06/29 14:41:04;;;;;;;4.93;2.60;;;;;;;;;;5078995;28;20052;-79
2022/06/29 14:43:31;;;;;;;3.25;2.90;;;;;;;;;;5085542;28;20051;-79
2022/06/29 14:45:58;;;;;;;3.80;2.75;;;;;;;;;;5086115;28;20427;-78
2022/06/29 14:48:24;;;;;;;3.72;2.72;;;;;;;;;;5088525;28;20047;-79
2022/06/29 14:50:52;;;;;;;5.32;3.25;;;;;;;;;;5094923;28;20036;-80
2022/06/29 14:53:18;;;;;;;3.60;2.65;;;;;;;;;;5081758;28;20123;-79
2022/06/29 14:55:44;;;;;;;5.75;3.15;;;;;;;;;;5082365;28;20044;-79
2022/06/29 14:58:11;;;;;;;4.07;3.03;;;;;;;;;;5083090;28;20321;-79
2022/06/29 15:00:37;;;;;;;4.68;2.88;;;;;;;;;;5089595;28;20039;-79